Time;durP1;ratioP1;P1;durP2;ratioP2;P2;SDS_P1;SDS_P2;PMS_P1;PMS_P2;Temp;Humidity;BMP_temperature;BMP_pressure;BME280_temperature;BME280_humidity;BME280_pressure;Samples;Min_cycle;Max_cycle;Signal;HPM_P1;HPM_P2
2021/05/28 00:00:46;;;;;;;1.70;1.60;;;13.90;99.90;;;;;;5010706;28;20652;-72
2021/05/28 00:03:12;;;;;;;1.80;1.50;;;13.90;99.90;;;;;;5012316;28;20200;-72
2021/05/28 00:05:39;;;;;;;2.00;1.48;;;13.90;99.90;;;;;;5010290;28;20612;-72
2021/05/28 00:08:05;;;;;;;2.92;1.80;;;13.90;99.90;;;;;;5010897;28;20548;-73
2021/05/28 00:10:31;;;;;;;1.80;1.35;;;13.90;99.90;;;;;;5009668;28;20231;-72
2021/05/28 00:12:58;;;;;;;1.83;1.38;;;13.90;99.90;;;;;;5010981;28;20231;-72
2021/05/28 00:15:25;;;;;;;2.08;1.67;;;13.90;99.90;;;;;;5009327;28;20200;-72
2021/05/28 00:17:51;;;;;;;2.10;1.67;;;13.80;99.90;;;;;;5006590;28;20235;-72
2021/05/28 00:20:17;;;;;;;1.80;1.55;;;13.80;99.90;;;;;;5007254;28;20402;-72
2021/05/28 00:22:43;;;;;;;2.92;1.48;;;13.80;99.90;;;;;;5008669;28;20534;-71
2021/05/28 00:25:11;;;;;;;1.80;1.60;;;13.80;99.90;;;;;;5006042;28;20204;-72
2021/05/28 00:27:37;;;;;;;1.40;1.17;;;13.80;99.90;;;;;;5005562;28;20250;-72
2021/05/28 00:30:05;;;;;;;1.92;1.40;;;13.80;99.90;;;;;;5007965;28;20227;-72
2021/05/28 00:32:32;;;;;;;2.78;1.60;;;13.80;99.90;;;;;;5009196;28;20731;-72
2021/05/28 00:34:58;;;;;;;1.80;1.48;;;13.80;99.90;;;;;;5010658;28;20212;-71
2021/05/28 00:37:25;;;;;;;4.70;1.85;;;13.70;99.90;;;;;;5010591;28;20253;-72
2021/05/28 00:39:51;;;;;;;2.60;1.60;;;13.70;99.90;;;;;;5008100;28;20192;-72
2021/05/28 00:42:17;;;;;;;2.95;1.60;;;13.80;99.90;;;;;;5010156;28;20211;-72
2021/05/28 00:44:44;;;;;;;3.08;2.15;;;13.80;99.90;;;;;;5011434;28;20203;-72
2021/05/28 00:47:10;;;;;;;1.85;1.50;;;13.70;99.90;;;;;;5008063;28;20873;-72
2021/05/28 00:49:37;;;;;;;2.95;1.77;;;13.70;99.90;;;;;;5008423;28;20867;-72
2021/05/28 00:52:04;;;;;;;2.63;1.88;;;13.70;99.90;;;;;;5009373;28;20293;-72
2021/05/28 00:54:30;;;;;;;2.20;1.30;;;13.70;99.90;;;;;;5005840;28;21042;-72
2021/05/28 00:56:57;;;;;;;8.40;2.28;;;13.70;99.90;;;;;;5001539;28;20208;-72
2021/05/28 00:59:24;;;;;;;2.45;1.42;;;13.70;99.90;;;;;;4996244;28;20227;-72
2021/05/28 01:01:51;;;;;;;1.55;1.40;;;13.70;99.90;;;;;;4995617;28;20735;-72
2021/05/28 01:04:18;;;;;;;1.80;1.42;;;13.70;99.90;;;;;;4997011;28;20235;-72
2021/05/28 01:06:45;;;;;;;1.88;1.40;;;13.70;99.90;;;;;;5010002;28;20630;-71
2021/05/28 01:09:11;;;;;;;3.67;1.75;;;13.70;99.90;;;;;;5011150;28;20270;-72
2021/05/28 01:11:38;;;;;;;1.95;1.75;;;13.60;99.90;;;;;;5010472;28;20255;-72
2021/05/28 01:14:05;;;;;;;4.10;2.13;;;13.70;99.90;;;;;;5009610;28;20572;-72
2021/05/28 01:16:31;;;;;;;1.45;1.30;;;13.70;99.90;;;;;;5008915;28;20204;-72
2021/05/28 01:18:58;;;;;;;2.92;1.60;;;13.60;99.90;;;;;;5009964;28;20200;-72
2021/05/28 01:21:24;;;;;;;3.75;1.73;;;13.70;99.90;;;;;;5009259;28;20255;-72
2021/05/28 01:23:51;;;;;;;2.25;1.30;;;13.60;99.90;;;;;;5005147;28;20200;-72
2021/05/28 01:26:18;;;;;;;3.92;1.52;;;13.60;99.90;;;;;;5003757;28;20515;-72
2021/05/28 01:28:44;;;;;;;3.75;1.30;;;13.60;99.90;;;;;;5005489;28;20208;-72
2021/05/28 01:31:11;;;;;;;2.58;1.65;;;13.60;99.90;;;;;;5010032;28;20220;-72
2021/05/28 01:33:39;;;;;;;1.95;1.30;;;13.60;99.90;;;;;;5007502;28;20232;-72
2021/05/28 01:36:06;;;;;;;2.22;1.65;;;13.60;99.90;;;;;;5009391;28;20266;-72
2021/05/28 01:38:32;;;;;;;2.25;1.38;;;13.60;99.90;;;;;;5010912;28;20514;-72
2021/05/28 01:41:00;;;;;;;2.80;1.73;;;13.70;99.90;;;;;;5010049;28;20211;-72
2021/05/28 01:43:26;;;;;;;2.47;1.38;;;13.60;99.90;;;;;;5008556;28;20270;-72
2021/05/28 01:45:52;;;;;;;3.10;1.40;;;13.70;99.90;;;;;;5010478;28;20255;-72
2021/05/28 01:48:18;;;;;;;1.67;1.58;;;13.70;99.90;;;;;;5011267;28;20251;-72
2021/05/28 01:50:45;;;;;;;1.98;1.30;;;13.70;99.90;;;;;;5011140;28;20238;-72
2021/05/28 01:53:16;;;;;;;2.97;1.75;;;13.70;99.90;;;;;;5010587;28;20223;-72
2021/05/28 01:55:42;;;;;;;3.45;1.83;;;13.70;99.90;;;;;;5005241;28;20200;-72
2021/05/28 01:58:11;;;;;;;3.05;2.17;;;13.70;99.90;;;;;;5005241;28;20196;-72
2021/05/28 02:00:37;;;;;;;4.22;1.58;;;13.70;99.90;;;;;;5012048;28;20192;-72
2021/05/28 02:03:04;;;;;;;1.95;1.33;;;13.60;99.90;;;;;;5013226;28;20208;-72
2021/05/28 02:05:30;;;;;;;5.25;2.22;;;13.60;99.90;;;;;;5014051;28;20219;-72
2021/05/28 02:07:57;;;;;;;2.85;1.50;;;13.60;99.90;;;;;;5012789;28;20656;-72
2021/05/28 02:10:23;;;;;;;3.15;1.88;;;13.60;99.90;;;;;;5013810;28;20236;-72
2021/05/28 02:12:49;;;;;;;1.58;1.02;;;13.60;99.90;;;;;;5011931;28;20203;-72
2021/05/28 02:15:16;;;;;;;4.28;1.75;;;13.60;99.90;;;;;;5011939;28;20219;-72
2021/05/28 02:17:43;;;;;;;2.00;1.80;;;13.60;99.90;;;;;;5013137;28;20219;-71
2021/05/28 02:20:10;;;;;;;6.70;1.48;;;13.70;99.90;;;;;;5012932;28;20656;-72
2021/05/28 02:22:37;;;;;;;1.77;1.48;;;13.60;99.90;;;;;;4994211;28;20235;-72
2021/05/28 02:25:04;;;;;;;1.80;1.30;;;13.60;99.90;;;;;;5006298;28;20192;-72
2021/05/28 02:27:30;;;;;;;3.45;1.60;;;13.60;99.90;;;;;;5007345;28;20196;-72
2021/05/28 02:29:56;;;;;;;4.43;1.50;;;13.60;99.90;;;;;;5010212;28;20196;-72
2021/05/28 02:32:23;;;;;;;2.10;1.55;;;13.60;99.90;;;;;;5011419;28;20224;-71
2021/05/28 02:34:49;;;;;;;2.30;1.23;;;13.60;99.90;;;;;;5012965;28;20510;-72
2021/05/28 02:37:16;;;;;;;2.05;1.70;;;13.60;99.90;;;;;;5012502;28;20656;-72
2021/05/28 02:39:42;;;;;;;4.07;1.75;;;13.50;99.90;;;;;;5012670;28;20200;-72
2021/05/28 02:42:08;;;;;;;2.25;1.77;;;13.60;99.90;;;;;;5003165;28;20196;-72
2021/05/28 02:44:35;;;;;;;1.90;1.42;;;13.50;99.90;;;;;;5013374;28;20211;-73
2021/05/28 02:47:01;;;;;;;1.83;1.30;;;13.50;99.90;;;;;;5011725;28;20677;-73
2021/05/28 02:49:28;;;;;;;1.60;1.50;;;13.50;99.90;;;;;;5011549;28;20541;-72
2021/05/28 02:51:54;;;;;;;1.60;1.50;;;13.50;99.90;;;;;;5013041;28;20220;-72
2021/05/28 02:54:22;;;;;;;1.70;1.25;;;13.40;99.90;;;;;;5009745;28;20649;-72
2021/05/28 02:56:48;;;;;;;1.75;1.40;;;13.40;99.90;;;;;;5007393;28;20674;-72
2021/05/28 02:59:14;;;;;;;3.15;1.70;;;13.40;99.90;;;;;;5012172;28;20204;-72
2021/05/28 03:01:41;;;;;;;3.63;1.75;;;13.40;99.90;;;;;;5013014;28;20207;-72
2021/05/28 03:04:07;;;;;;;2.17;1.70;;;13.40;99.90;;;;;;5012309;28;20279;-72
2021/05/28 03:06:34;;;;;;;5.75;1.85;;;13.40;99.90;;;;;;5012885;28;20204;-72
2021/05/28 03:09:00;;;;;;;1.75;1.65;;;13.40;99.90;;;;;;5012057;28;20204;-73
2021/05/28 03:11:27;;;;;;;2.95;1.55;;;13.30;99.90;;;;;;5011474;28;20216;-72
2021/05/28 03:13:53;;;;;;;4.95;1.60;;;13.30;99.90;;;;;;5011563;28;20200;-72
2021/05/28 03:16:19;;;;;;;1.77;1.60;;;13.40;99.90;;;;;;5012620;28;20286;-72
2021/05/28 03:18:48;;;;;;;3.30;1.60;;;13.30;99.90;;;;;;5011614;28;20200;-72
2021/05/28 03:21:24;;;;;;;3.22;1.40;;;13.30;99.90;;;;;;5012913;28;20536;-72
2021/05/28 03:23:52;;;;;;;3.45;1.83;;;13.30;99.90;;;;;;5011640;28;20304;-72
2021/05/28 03:26:19;;;;;;;2.30;1.50;;;13.30;99.90;;;;;;5005196;28;20589;-72
2021/05/28 03:28:45;;;;;;;2.22;1.65;;;13.30;99.90;;;;;;5012235;28;20266;-72
2021/05/28 03:31:12;;;;;;;4.28;1.63;;;13.30;99.90;;;;;;5010802;28;20224;-72
2021/05/28 03:33:39;;;;;;;1.80;1.35;;;13.30;99.90;;;;;;5012756;28;20228;-72
2021/05/28 03:36:06;;;;;;;3.28;1.50;;;13.30;99.90;;;;;;5010199;28;20210;-72
2021/05/28 03:38:32;;;;;;;2.47;2.00;;;13.20;99.90;;;;;;5012842;28;20342;-72
2021/05/28 03:40:59;;;;;;;1.85;1.75;;;13.30;99.90;;;;;;5012145;28;20226;-72
2021/05/28 03:43:26;;;;;;;2.60;1.50;;;13.30;99.90;;;;;;5010066;28;20196;-73
2021/05/28 03:45:53;;;;;;;2.08;1.85;;;13.30;99.90;;;;;;5006459;28;20250;-72
2021/05/28 03:48:19;;;;;;;2.00;1.63;;;13.30;99.90;;;;;;5010727;28;20204;-73
2021/05/28 03:50:45;;;;;;;1.65;1.55;;;13.30;99.90;;;;;;5011194;28;20227;-72
2021/05/28 03:53:12;;;;;;;1.85;1.63;;;13.30;99.90;;;;;;5009552;28;20204;-73
2021/05/28 03:55:38;;;;;;;2.38;1.42;;;13.30;99.90;;;;;;5009429;28;20211;-70
2021/05/28 03:58:05;;;;;;;2.70;1.40;;;13.30;99.90;;;;;;5013251;28;20270;-72
2021/05/28 04:00:32;;;;;;;1.70;1.60;;;13.30;99.90;;;;;;5010089;28;20207;-72
2021/05/28 04:02:58;;;;;;;2.35;1.98;;;13.30;99.90;;;;;;5012058;28;20530;-73
2021/05/28 04:05:24;;;;;;;2.40;1.60;;;13.30;99.90;;;;;;5011311;28;20196;-72
2021/05/28 04:07:50;;;;;;;2.17;1.77;;;13.20;99.90;;;;;;5012073;28;20200;-72
2021/05/28 04:10:17;;;;;;;2.72;1.90;;;13.30;99.90;;;;;;5011757;28;20196;-73
2021/05/28 04:12:43;;;;;;;2.00;1.70;;;13.20;99.90;;;;;;5011870;28;20204;-73
2021/05/28 04:15:12;;;;;;;3.67;1.90;;;13.20;99.90;;;;;;5011195;28;20196;-73
2021/05/28 04:17:38;;;;;;;2.10;1.65;;;13.20;99.90;;;;;;5009943;28;20196;-73
2021/05/28 04:20:05;;;;;;;2.10;1.88;;;13.20;99.90;;;;;;5011332;28;20200;-73
2021/05/28 04:22:31;;;;;;;1.85;1.60;;;13.20;99.90;;;;;;5010997;28;20214;-71
2021/05/28 04:24:57;;;;;;;2.33;2.00;;;13.20;99.90;;;;;;5004718;28;20215;-71
2021/05/28 04:27:24;;;;;;;2.25;2.05;;;13.20;99.90;;;;;;5011633;28;20204;-72
2021/05/28 04:29:50;;;;;;;1.77;1.55;;;13.20;99.90;;;;;;5011293;28;20234;-72
2021/05/28 04:32:17;;;;;;;2.88;1.50;;;13.10;99.90;;;;;;5010884;28;20231;-72
2021/05/28 04:34:43;;;;;;;2.10;1.77;;;13.10;99.90;;;;;;5010098;28;20208;-72
2021/05/28 04:37:10;;;;;;;2.80;1.70;;;13.10;99.90;;;;;;5011534;28;20200;-72
2021/05/28 04:39:36;;;;;;;2.53;2.25;;;13.10;99.90;;;;;;5004710;28;20200;-72
2021/05/28 04:42:03;;;;;;;1.92;1.60;;;13.10;99.90;;;;;;5009051;28;20192;-72
2021/05/28 04:44:29;;;;;;;2.15;1.80;;;13.00;99.90;;;;;;5003970;28;20235;-72
2021/05/28 04:46:56;;;;;;;1.60;1.40;;;13.00;99.90;;;;;;5010103;28;20220;-72
2021/05/28 04:49:23;;;;;;;3.58;2.25;;;13.00;99.90;;;;;;5010270;28;20207;-72
2021/05/28 04:51:50;;;;;;;2.63;1.77;;;13.00;99.90;;;;;;5011005;28;20223;-73
2021/05/28 04:54:16;;;;;;;1.67;1.58;;;13.00;99.90;;;;;;5007829;28;20200;-72
2021/05/28 04:56:43;;;;;;;2.50;1.88;;;13.00;99.90;;;;;;5009306;28;20200;-72
2021/05/28 04:59:09;;;;;;;2.58;1.98;;;12.90;99.90;;;;;;5011312;28;20196;-73
2021/05/28 05:01:35;;;;;;;1.80;1.70;;;13.00;99.90;;;;;;5011227;28;20270;-72
2021/05/28 05:04:02;;;;;;;2.90;1.30;;;12.90;99.90;;;;;;5011655;28;20200;-72
2021/05/28 05:06:29;;;;;;;1.75;1.63;;;13.00;99.90;;;;;;5010778;28;20728;-72
2021/05/28 05:08:55;;;;;;;2.17;1.50;;;13.00;99.90;;;;;;5010111;28;20201;-72
2021/05/28 05:11:21;;;;;;;2.65;1.63;;;12.90;99.90;;;;;;5007788;28;20211;-72
2021/05/28 05:13:47;;;;;;;1.65;1.55;;;12.90;99.90;;;;;;5010222;28;20207;-72
2021/05/28 05:16:14;;;;;;;2.20;1.80;;;12.90;99.90;;;;;;4998733;28;20191;-72
2021/05/28 05:18:40;;;;;;;1.75;1.50;;;12.90;99.90;;;;;;5009979;28;20649;-72
2021/05/28 05:21:06;;;;;;;2.28;1.58;;;12.90;99.90;;;;;;5010953;28;20201;-71
2021/05/28 05:23:33;;;;;;;2.47;2.28;;;12.90;99.90;;;;;;5008239;28;20207;-72
2021/05/28 05:25:59;;;;;;;1.90;1.80;;;12.90;99.90;;;;;;5004642;28;20200;-72
2021/05/28 05:28:25;;;;;;;2.58;1.90;;;12.90;99.90;;;;;;5004330;28;20227;-72
2021/05/28 05:30:52;;;;;;;1.98;1.75;;;12.90;99.90;;;;;;5008953;28;20223;-73
2021/05/28 05:33:18;;;;;;;3.25;1.90;;;12.80;99.90;;;;;;5011081;28;20413;-72
2021/05/28 05:35:44;;;;;;;2.50;1.95;;;12.80;99.90;;;;;;5012644;28;20200;-72
2021/05/28 05:38:10;;;;;;;2.78;1.73;;;12.90;99.90;;;;;;5011525;28;20649;-72
2021/05/28 05:40:38;;;;;;;2.17;1.85;;;12.80;99.90;;;;;;5013909;28;20212;-72
2021/05/28 05:43:05;;;;;;;2.47;2.00;;;12.90;99.90;;;;;;5013411;28;20215;-72
2021/05/28 05:45:31;;;;;;;2.85;2.10;;;12.90;99.90;;;;;;5013531;28;20200;-72
2021/05/28 05:47:58;;;;;;;2.30;2.10;;;12.90;99.90;;;;;;5013507;28;22200;-71
2021/05/28 05:50:24;;;;;;;2.83;2.38;;;12.80;99.90;;;;;;5014323;28;20238;-72
2021/05/28 05:52:52;;;;;;;2.65;2.45;;;12.80;99.90;;;;;;5001350;28;20286;-73
2021/05/28 05:55:19;;;;;;;3.50;2.15;;;12.90;99.90;;;;;;5012085;28;21082;-73
2021/05/28 05:57:46;;;;;;;3.97;2.35;;;12.90;99.90;;;;;;5008553;28;20216;-73
2021/05/28 06:00:13;;;;;;;2.78;2.28;;;12.90;99.90;;;;;;5009361;28;20231;-73
2021/05/28 06:02:40;;;;;;;4.15;3.75;;;12.90;99.90;;;;;;5014394;28;20215;-73
2021/05/28 06:05:07;;;;;;;4.95;3.67;;;12.90;99.90;;;;;;5014332;28;20211;-72
2021/05/28 06:07:33;;;;;;;6.13;3.72;;;13.00;99.90;;;;;;5013065;28;20262;-73
2021/05/28 06:09:59;;;;;;;4.43;3.42;;;13.00;99.90;;;;;;5013755;28;20208;-73
2021/05/28 06:12:25;;;;;;;3.92;3.53;;;13.10;99.90;;;;;;5007451;28;20227;-72
2021/05/28 06:14:52;;;;;;;4.13;3.42;;;13.10;99.90;;;;;;5001637;28;20672;-73
2021/05/28 06:17:19;;;;;;;7.10;4.15;;;13.10;99.90;;;;;;5012684;28;20201;-72
2021/05/28 06:19:45;;;;;;;5.32;4.82;;;13.10;99.90;;;;;;5011673;28;20637;-73
2021/05/28 06:22:12;;;;;;;4.88;4.30;;;13.10;99.90;;;;;;5013240;28;20266;-73
2021/05/28 06:24:38;;;;;;;5.10;4.50;;;13.10;99.90;;;;;;5010958;28;20211;-73
2021/05/28 06:27:05;;;;;;;5.47;4.43;;;13.10;99.90;;;;;;5006284;28;20200;-73
2021/05/28 06:29:31;;;;;;;7.43;6.20;;;13.20;99.90;;;;;;5009764;28;20250;-72
2021/05/28 06:31:58;;;;;;;10.23;7.13;;;13.20;99.90;;;;;;5011519;28;20220;-73
2021/05/28 06:34:24;;;;;;;6.82;4.97;;;13.10;99.90;;;;;;5012079;28;20236;-73
2021/05/28 06:36:50;;;;;;;5.75;4.50;;;13.10;99.90;;;;;;5012141;28;20204;-73
2021/05/28 06:39:17;;;;;;;11.38;6.40;;;13.10;99.90;;;;;;5014128;28;20204;-73
2021/05/28 06:41:44;;;;;;;6.35;4.85;;;13.10;99.90;;;;;;5011684;28;20200;-73
2021/05/28 06:44:10;;;;;;;8.85;5.72;;;13.10;99.90;;;;;;5013033;28;20208;-73
2021/05/28 06:46:36;;;;;;;8.60;6.88;;;13.10;99.90;;;;;;4996784;28;20205;-73
2021/05/28 06:49:03;;;;;;;10.20;7.10;;;13.10;99.90;;;;;;5012007;28;20200;-73
2021/05/28 06:51:30;;;;;;;10.63;8.85;;;13.00;99.90;;;;;;5013044;28;20247;-73
2021/05/28 06:53:56;;;;;;;8.48;7.47;;;13.00;99.90;;;;;;5011506;28;20327;-73
2021/05/28 06:56:22;;;;;;;9.13;6.88;;;13.00;99.90;;;;;;5008450;28;20200;-72
2021/05/28 06:58:49;;;;;;;6.10;5.35;;;13.10;99.90;;;;;;5006715;28;20636;-73
2021/05/28 07:01:16;;;;;;;6.25;5.28;;;13.10;99.90;;;;;;5011653;28;20203;-73
2021/05/28 07:03:43;;;;;;;7.85;6.55;;;13.10;99.90;;;;;;5012304;28;20603;-73
2021/05/28 07:06:10;;;;;;;8.35;6.75;;;13.10;99.90;;;;;;5010439;28;20528;-73
2021/05/28 07:08:36;;;;;;;8.93;6.40;;;13.00;99.90;;;;;;5011680;28;20208;-73
2021/05/28 07:11:03;;;;;;;8.18;7.38;;;13.00;99.90;;;;;;5013039;28;20216;-72
2021/05/28 07:13:29;;;;;;;9.00;6.45;;;13.00;99.90;;;;;;5010833;28;20192;-72
2021/05/28 07:15:55;;;;;;;9.23;5.75;;;13.00;99.90;;;;;;5012343;28;20204;-72
2021/05/28 07:18:21;;;;;;;9.02;8.18;;;13.10;99.90;;;;;;5011826;28;20200;-72
2021/05/28 07:20:48;;;;;;;10.27;7.53;;;13.10;99.90;;;;;;5012602;28;20207;-72
2021/05/28 07:23:19;;;;;;;9.80;6.93;;;13.10;99.90;;;;;;5000811;28;20633;-72
2021/05/28 07:25:45;;;;;;;12.80;7.10;;;13.10;99.90;;;;;;5004176;28;20204;-72
2021/05/28 07:28:12;;;;;;;6.47;5.65;;;13.20;99.90;;;;;;5003444;28;20200;-71
2021/05/28 07:30:38;;;;;;;9.38;6.80;;;13.10;99.90;;;;;;5007111;28;20208;-72
2021/05/28 07:33:05;;;;;;;7.65;6.28;;;13.10;99.90;;;;;;5011264;28;20235;-72
2021/05/28 07:35:31;;;;;;;8.15;6.13;;;13.10;99.90;;;;;;5010243;28;20207;-72
2021/05/28 07:37:57;;;;;;;6.93;5.63;;;13.10;99.90;;;;;;5012279;28;20743;-72
2021/05/28 07:40:24;;;;;;;7.18;5.70;;;13.10;99.90;;;;;;5011120;28;20192;-72
2021/05/28 07:42:50;;;;;;;6.25;5.65;;;13.20;99.90;;;;;;5007774;28;20208;-72
2021/05/28 07:45:17;;;;;;;6.05;5.45;;;13.20;99.90;;;;;;5012350;28;20223;-73
2021/05/28 07:47:43;;;;;;;6.38;5.78;;;13.20;99.90;;;;;;5011646;28;20625;-72
2021/05/28 07:50:11;;;;;;;5.45;4.95;;;13.20;99.90;;;;;;5010429;28;20200;-72
2021/05/28 07:52:37;;;;;;;5.25;4.85;;;13.20;99.90;;;;;;5006678;28;20261;-72
2021/05/28 07:55:05;;;;;;;5.82;5.30;;;13.20;99.90;;;;;;5010044;28;20219;-72
2021/05/28 07:57:32;;;;;;;5.55;5.05;;;13.30;99.90;;;;;;5004667;28;20200;-72
2021/05/28 07:59:58;;;;;;;6.05;5.53;;;13.30;99.90;;;;;;5010322;28;20211;-72
2021/05/28 08:02:25;;;;;;;5.90;5.40;;;13.40;99.90;;;;;;5010026;28;20735;-72
2021/05/28 08:04:51;;;;;;;5.57;5.18;;;13.40;99.90;;;;;;5010473;28;20200;-72
2021/05/28 08:07:17;;;;;;;5.20;4.43;;;13.50;99.90;;;;;;5010063;28;20813;-72
2021/05/28 08:09:45;;;;;;;5.00;4.57;;;13.50;99.90;;;;;;5004963;28;20235;-72
2021/05/28 08:12:11;;;;;;;7.03;5.78;;;13.50;99.90;;;;;;5010100;28;20244;-72
2021/05/28 08:14:38;;;;;;;4.22;3.83;;;13.50;99.90;;;;;;5005913;28;20522;-72
2021/05/28 08:17:05;;;;;;;4.60;4.05;;;13.50;99.90;;;;;;5012620;28;20211;-71
2021/05/28 08:19:31;;;;;;;4.30;3.90;;;13.50;99.90;;;;;;5011577;28;20569;-71
2021/05/28 08:21:57;;;;;;;5.63;5.00;;;13.50;99.90;;;;;;5011045;28;20277;-72
2021/05/28 08:24:24;;;;;;;4.55;3.95;;;13.50;99.90;;;;;;5011064;28;20212;-72
2021/05/28 08:26:50;;;;;;;4.57;4.18;;;13.60;99.90;;;;;;5006381;28;20258;-72
2021/05/28 08:29:16;;;;;;;4.53;4.13;;;13.70;99.90;;;;;;5007459;28;20203;-72
2021/05/28 08:31:43;;;;;;;4.50;4.10;;;13.70;99.90;;;;;;5011024;28;20223;-72
2021/05/28 08:34:10;;;;;;;4.10;3.75;;;13.70;99.90;;;;;;5010025;28;20227;-72
2021/05/28 08:36:36;;;;;;;3.42;3.13;;;13.70;99.90;;;;;;5008126;28;20210;-72
2021/05/28 08:39:04;;;;;;;3.22;3.03;;;13.90;99.90;;;;;;5010543;28;20207;-72
2021/05/28 08:41:30;;;;;;;3.63;3.33;;;14.10;99.90;;;;;;5011909;28;20204;-72
2021/05/28 08:43:59;;;;;;;4.30;3.92;;;14.30;99.90;;;;;;5010223;28;20197;-72
2021/05/28 08:46:25;;;;;;;3.60;3.03;;;14.40;99.90;;;;;;5004362;28;20218;-72
2021/05/28 08:48:52;;;;;;;3.40;3.10;;;14.40;99.90;;;;;;5011697;28;20200;-72
2021/05/28 08:51:19;;;;;;;4.05;3.70;;;14.50;99.90;;;;;;5011336;28;20529;-72
2021/05/28 08:53:45;;;;;;;3.42;3.13;;;14.60;99.90;;;;;;5006891;28;20204;-72
2021/05/28 08:56:12;;;;;;;4.07;3.53;;;14.60;99.90;;;;;;5002756;28;20204;-72
2021/05/28 08:58:39;;;;;;;3.00;2.80;;;14.60;99.90;;;;;;5005340;28;20731;-72
2021/05/28 09:01:08;;;;;;;3.63;3.35;;;14.70;99.90;;;;;;5006140;28;20215;-72
2021/05/28 09:03:35;;;;;;;3.00;2.80;;;14.90;99.90;;;;;;5012498;28;20261;-72
2021/05/28 09:06:06;;;;;;;3.20;2.63;;;15.00;99.90;;;;;;5011263;28;20211;-72
2021/05/28 09:08:35;;;;;;;3.47;3.00;;;15.20;99.90;;;;;;5006026;28;20572;-72
2021/05/28 09:11:06;;;;;;;2.70;2.50;;;15.30;99.90;;;;;;5013134;28;20216;-73
2021/05/28 09:13:33;;;;;;;2.28;2.08;;;15.40;99.90;;;;;;5013238;28;20200;-72
2021/05/28 09:16:08;;;;;;;2.53;2.33;;;15.50;99.90;;;;;;5013489;28;20210;-73
2021/05/28 09:18:47;;;;;;;2.70;2.50;;;15.60;99.90;;;;;;5012631;28;20715;-72
2021/05/28 09:21:18;;;;;;;2.92;2.72;;;15.70;99.90;;;;;;5014870;28;20196;-73
2021/05/28 09:23:45;;;;;;;2.50;2.30;;;15.80;99.90;;;;;;5013310;28;20196;-72
2021/05/28 09:26:11;;;;;;;2.90;2.70;;;15.80;99.90;;;;;;5009967;28;20192;-72
2021/05/28 09:28:43;;;;;;;2.50;2.30;;;15.90;99.90;;;;;;5006810;28;20269;-72
2021/05/28 09:31:13;;;;;;;2.95;2.50;;;15.90;99.90;;;;;;5012050;28;20282;-73
2021/05/28 09:33:41;;;;;;;2.40;2.20;;;16.00;99.90;;;;;;5013876;28;20608;-73
2021/05/28 09:36:14;;;;;;;2.30;2.10;;;16.00;99.90;;;;;;5009010;28;20204;-73
2021/05/28 09:38:54;;;;;;;2.08;1.92;;;16.00;99.90;;;;;;5012846;28;20236;-73
2021/05/28 09:41:35;;;;;;;3.95;2.40;;;16.10;99.90;;;;;;5013683;28;20203;-72
2021/05/28 09:44:08;;;;;;;2.20;2.10;;;16.10;99.90;;;;;;5008460;28;20286;-73
2021/05/28 09:46:34;;;;;;;2.50;2.30;;;16.10;99.90;;;;;;5011912;28;20203;-73
2021/05/28 09:49:07;;;;;;;2.58;2.05;;;16.20;99.90;;;;;;5015042;28;20680;-73
2021/05/28 09:51:34;;;;;;;2.47;2.28;;;16.20;99.90;;;;;;5005960;28;20239;-73
2021/05/28 09:54:13;;;;;;;2.10;1.83;;;16.20;99.90;;;;;;5003839;28;20653;-73
2021/05/28 09:56:39;;;;;;;2.95;2.65;;;16.20;99.90;;;;;;5009759;28;20219;-72
2021/05/28 09:59:07;;;;;;;2.42;2.22;;;16.20;99.90;;;;;;5008987;28;20208;-73
2021/05/28 10:01:35;;;;;;;2.67;2.47;;;16.20;99.90;;;;;;5007939;28;20223;-72
2021/05/28 10:04:04;;;;;;;2.25;2.00;;;16.20;99.90;;;;;;5015945;28;20629;-72
2021/05/28 10:06:32;;;;;;;2.03;1.80;;;16.20;99.90;;;;;;5015609;28;20215;-73
2021/05/28 10:09:01;;;;;;;1.83;1.67;;;16.20;99.90;;;;;;5014711;28;20200;-72
2021/05/28 10:11:28;;;;;;;3.15;2.88;;;16.20;99.90;;;;;;5014554;28;20216;-72
2021/05/28 10:13:55;;;;;;;3.22;2.50;;;16.20;99.90;;;;;;5014804;28;20211;-72
2021/05/28 10:16:23;;;;;;;2.35;2.15;;;16.20;99.90;;;;;;5015199;28;20212;-72
2021/05/28 10:18:50;;;;;;;2.30;2.10;;;16.20;99.90;;;;;;5003167;28;20602;-73
2021/05/28 10:21:17;;;;;;;1.95;1.85;;;16.20;99.90;;;;;;5012081;28;20192;-72
2021/05/28 10:23:44;;;;;;;1.90;1.80;;;16.20;99.90;;;;;;5012085;28;20534;-73
2021/05/28 10:26:12;;;;;;;2.83;2.63;;;16.20;99.90;;;;;;5010982;28;20200;-72
2021/05/28 10:28:42;;;;;;;2.20;2.00;;;16.20;99.90;;;;;;5008228;28;20525;-72
2021/05/28 10:31:10;;;;;;;2.83;2.63;;;16.20;99.90;;;;;;5007893;28;20208;-73
2021/05/28 10:33:42;;;;;;;2.63;1.75;;;16.20;99.90;;;;;;5008950;28;20231;-73
2021/05/28 10:36:10;;;;;;;2.53;2.33;;;16.10;99.90;;;;;;5007311;28;20228;-72
2021/05/28 10:38:52;;;;;;;2.28;1.80;;;16.10;99.90;;;;;;5008803;28;20208;-80
2021/05/28 10:41:36;;;;;;;5.32;2.22;;;16.10;99.90;;;;;;5012565;28;20203;-73
2021/05/28 10:44:08;;;;;;;2.50;2.30;;;16.10;99.90;;;;;;5011311;28;20730;-72
2021/05/28 10:46:36;;;;;;;3.08;2.88;;;16.00;99.90;;;;;;5005751;28;20279;-72
2021/05/28 10:49:14;;;;;;;2.35;2.10;;;16.10;99.90;;;;;;5012659;28;20201;-70
2021/05/28 10:52:01;;;;;;;2.45;2.25;;;16.00;99.90;;;;;;5012169;28;20295;-71
2021/05/28 10:54:32;;;;;;;1.90;1.80;;;16.00;99.90;;;;;;4994003;28;20216;-70
2021/05/28 10:57:19;;;;;;;2.20;2.00;;;16.10;99.90;;;;;;5008617;28;20200;-70
2021/05/28 10:59:48;;;;;;;2.10;1.90;;;16.10;99.90;;;;;;5012900;28;20200;-71
2021/05/28 11:02:15;;;;;;;1.95;1.70;;;16.10;99.90;;;;;;5011246;28;20188;-71
2021/05/28 11:04:59;;;;;;;1.65;1.52;;;16.10;99.90;;;;;;5008843;28;20210;-71
2021/05/28 11:07:34;;;;;;;2.10;1.90;;;16.10;99.90;;;;;;5006315;28;20231;-71
2021/05/28 11:10:16;;;;;;;1.95;1.85;;;16.20;99.90;;;;;;5004141;28;20200;-71
2021/05/28 11:12:43;;;;;;;2.03;1.83;;;16.20;99.90;;;;;;5003099;28;20719;-70
2021/05/28 11:15:13;;;;;;;2.50;2.30;;;16.20;99.90;;;;;;5010403;28;20519;-71
2021/05/28 11:17:56;;;;;;;1.63;1.52;;;16.20;99.90;;;;;;5005898;28;20238;-71
2021/05/28 11:20:28;;;;;;;3.70;2.30;;;16.20;99.90;;;;;;5006017;28;20200;-70
2021/05/28 11:22:54;;;;;;;1.63;1.52;;;16.20;99.90;;;;;;5010229;28;20196;-71
2021/05/28 11:25:22;;;;;;;2.30;2.10;;;16.30;99.90;;;;;;5008817;28;20224;-70
2021/05/28 11:28:08;;;;;;;1.88;1.67;;;16.20;99.90;;;;;;5012900;28;20585;-70
2021/05/28 11:30:50;;;;;;;2.08;1.73;;;16.20;99.90;;;;;;5011035;28;20694;-70
2021/05/28 11:33:44;;;;;;;2.00;1.80;;;16.20;99.90;;;;;;5008138;28;20270;-71
2021/05/28 11:36:38;;;;;;;2.58;1.75;;;16.30;99.90;;;;;;4989920;28;20223;-71
2021/05/28 11:39:06;;;;;;;3.25;1.92;;;16.30;99.90;;;;;;5007003;28;20196;-70
2021/05/28 11:41:43;;;;;;;2.50;2.08;;;16.30;99.90;;;;;;5007707;28;20197;-73
2021/05/28 11:44:12;;;;;;;1.70;1.60;;;16.30;99.90;;;;;;5006556;28;20200;-73
2021/05/28 11:46:41;;;;;;;2.00;1.83;;;16.30;99.90;;;;;;5005588;28;20630;-73
2021/05/28 11:49:08;;;;;;;1.80;1.70;;;16.30;99.90;;;;;;5005329;28;20530;-72
2021/05/28 11:51:34;;;;;;;1.70;1.60;;;16.30;99.90;;;;;;5006866;28;20223;-73
2021/05/28 11:54:01;;;;;;;2.10;1.95;;;16.30;99.90;;;;;;5011352;28;20231;-73
2021/05/28 11:56:28;;;;;;;2.15;1.95;;;16.30;99.90;;;;;;5012086;28;20227;-73
2021/05/28 11:58:54;;;;;;;2.42;2.22;;;16.30;99.90;;;;;;5012405;28;20587;-72
2021/05/28 12:01:21;;;;;;;2.20;2.00;;;16.30;99.90;;;;;;5009001;28;20262;-73
2021/05/28 12:03:47;;;;;;;1.92;1.60;;;16.30;99.90;;;;;;5011416;28;20210;-72
2021/05/28 12:06:13;;;;;;;2.15;1.90;;;16.30;99.90;;;;;;5010954;28;20207;-72
2021/05/28 12:08:41;;;;;;;1.70;1.60;;;16.30;99.90;;;;;;5011567;28;20243;-71
2021/05/28 12:11:09;;;;;;;2.10;1.90;;;16.30;99.90;;;;;;5010353;28;20576;-71
2021/05/28 12:13:37;;;;;;;1.98;1.77;;;16.30;99.90;;;;;;5011719;28;20211;-71
2021/05/28 12:16:05;;;;;;;2.55;1.98;;;16.40;99.90;;;;;;4996473;28;20630;-71
2021/05/28 12:18:35;;;;;;;1.98;1.77;;;16.30;99.90;;;;;;5010282;28;20262;-71
2021/05/28 12:21:05;;;;;;;1.70;1.60;;;16.30;99.90;;;;;;5012060;28;20210;-72
2021/05/28 12:23:32;;;;;;;1.55;1.45;;;16.30;99.90;;;;;;5010444;28;20204;-72
2021/05/28 12:25:59;;;;;;;1.58;1.48;;;16.30;99.90;;;;;;5011372;28;20203;-72
2021/05/28 12:28:31;;;;;;;2.25;2.05;;;16.40;99.90;;;;;;5010407;28;20250;-71
2021/05/28 12:31:04;;;;;;;1.63;1.52;;;16.40;99.90;;;;;;5011423;28;20653;-72
2021/05/28 12:33:33;;;;;;;2.10;1.70;;;16.40;99.90;;;;;;5010530;28;20258;-72
2021/05/28 12:36:02;;;;;;;1.65;1.55;;;16.40;99.90;;;;;;5011731;28;20200;-72
2021/05/28 12:38:34;;;;;;;3.95;2.97;;;16.40;99.90;;;;;;5012257;28;20211;-71
2021/05/28 12:41:01;;;;;;;2.08;1.80;;;16.40;99.90;;;;;;5000682;28;20231;-71
2021/05/28 12:43:29;;;;;;;2.00;1.90;;;16.40;99.90;;;;;;5010913;28;20203;-71
2021/05/28 12:45:56;;;;;;;2.25;1.92;;;16.40;99.90;;;;;;5012638;28;20549;-72
2021/05/28 12:48:42;;;;;;;1.98;1.80;;;16.40;99.90;;;;;;5010597;28;20196;-71